Time;durP1;ratioP1;P1;durP2;ratioP2;P2;SDS_P1;SDS_P2;PMS_P1;PMS_P2;Temp;Humidity;BMP_temperature;BMP_pressure;BME280_temperature;BME280_humidity;BME280_pressure;Samples;Min_cycle;Max_cycle;Signal;HPM_P1;HPM_P2
2023/11/04 00:01:57;;;;;;;4.80;1.40;;;9.70;99.90;;;;;;5069575;28;21126;-61
2023/11/04 00:04:22;;;;;;;3.73;1.60;;;9.70;99.90;;;;;;5068395;28;20185;-63
2023/11/04 00:06:48;;;;;;;2.60;1.47;;;9.70;99.90;;;;;;5069147;28;20292;-64
2023/11/04 00:09:14;;;;;;;3.00;1.43;;;9.70;99.90;;;;;;5066823;28;21170;-62
2023/11/04 00:11:39;;;;;;;3.70;1.17;;;9.70;99.90;;;;;;5069561;28;21126;-63
2023/11/04 00:14:05;;;;;;;2.40;1.80;;;9.80;99.90;;;;;;5066339;28;20671;-61
2023/11/04 00:16:31;;;;;;;1.30;1.13;;;9.70;99.90;;;;;;5068811;28;20324;-61
2023/11/04 00:18:56;;;;;;;4.23;1.47;;;9.70;99.90;;;;;;5069809;28;20695;-63
2023/11/04 00:21:22;;;;;;;5.00;1.23;;;9.70;99.90;;;;;;5067378;28;20683;-62
2023/11/04 00:23:48;;;;;;;2.40;1.20;;;9.70;99.90;;;;;;5068584;28;20184;-63
2023/11/04 00:26:13;;;;;;;2.43;1.23;;;9.70;99.90;;;;;;5070149;28;20185;-61
2023/11/04 00:28:39;;;;;;;0.83;0.83;;;9.70;99.90;;;;;;5070552;28;20184;-62
2023/11/04 00:31:07;;;;;;;1.43;1.00;;;9.70;99.90;;;;;;5069660;28;20210;-64
2023/11/04 00:33:33;;;;;;;1.60;1.00;;;9.70;99.90;;;;;;5068943;28;20227;-62
2023/11/04 00:35:59;;;;;;;2.97;1.00;;;9.60;99.90;;;;;;5069626;28;20565;-61
2023/11/04 00:38:25;;;;;;;1.20;1.10;;;9.60;99.90;;;;;;5069285;28;20209;-62
2023/11/04 00:40:51;;;;;;;1.67;1.10;;;9.60;99.90;;;;;;5068728;28;20523;-63
2023/11/04 00:43:16;;;;;;;2.07;1.00;;;9.60;99.90;;;;;;5069297;28;20176;-62
2023/11/04 00:45:42;;;;;;;1.43;1.03;;;9.60;99.90;;;;;;5069901;28;21312;-63
2023/11/04 00:48:08;;;;;;;1.20;0.97;;;9.70;99.90;;;;;;5068907;28;20184;-62
2023/11/04 00:50:33;;;;;;;2.50;1.07;;;9.70;99.90;;;;;;5070073;28;20177;-62
2023/11/04 00:52:59;;;;;;;1.17;0.70;;;9.70;99.90;;;;;;5071843;28;20232;-61
2023/11/04 00:55:24;;;;;;;1.47;0.90;;;9.60;99.90;;;;;;5069179;28;20193;-63
2023/11/04 00:57:50;;;;;;;1.50;0.87;;;9.70;99.90;;;;;;5069318;28;21003;-62
2023/11/04 01:00:23;;;;;;;1.93;1.23;;;9.60;99.90;;;;;;5068708;28;20192;-63
2023/11/04 01:02:49;;;;;;;1.57;0.80;;;9.60;99.90;;;;;;5067949;28;20181;-63
2023/11/04 01:05:14;;;;;;;1.80;0.90;;;9.60;99.90;;;;;;5072628;28;20933;-61
2023/11/04 01:07:40;;;;;;;2.50;0.90;;;9.70;99.90;;;;;;5069785;28;20188;-63
2023/11/04 01:10:07;;;;;;;1.30;1.00;;;9.60;99.90;;;;;;5067588;28;20187;-61
2023/11/04 01:12:32;;;;;;;2.20;0.80;;;9.60;99.90;;;;;;5068961;28;20192;-63
2023/11/04 01:14:58;;;;;;;1.23;0.90;;;9.60;99.90;;;;;;5068226;28;20999;-61
2023/11/04 01:17:24;;;;;;;1.40;0.63;;;9.60;99.90;;;;;;5068609;28;20220;-63
2023/11/04 01:19:50;;;;;;;1.60;0.80;;;9.50;99.90;;;;;;5067283;28;20180;-62
2023/11/04 01:22:15;;;;;;;1.00;0.73;;;9.50;99.90;;;;;;5068328;28;20243;-62
2023/11/04 01:24:41;;;;;;;0.83;0.60;;;9.60;99.90;;;;;;5067489;28;20181;-63
2023/11/04 01:27:09;;;;;;;1.90;0.80;;;9.60;99.90;;;;;;5067127;28;20185;-62
2023/11/04 01:29:35;;;;;;;0.80;0.63;;;9.60;99.90;;;;;;5068853;28;20184;-61
2023/11/04 01:32:00;;;;;;;1.63;0.70;;;9.60;99.90;;;;;;5067776;28;20439;-62
2023/11/04 01:34:26;;;;;;;0.97;0.70;;;9.60;99.90;;;;;;5067779;28;20429;-63
2023/11/04 01:36:51;;;;;;;0.60;0.50;;;9.60;99.90;;;;;;5067466;28;20261;-63
2023/11/04 01:39:17;;;;;;;1.20;0.70;;;9.60;99.90;;;;;;5068328;28;20235;-61
2023/11/04 01:41:43;;;;;;;0.77;0.60;;;9.60;99.90;;;;;;5067970;28;20226;-63
2023/11/04 01:44:09;;;;;;;1.13;0.77;;;9.60;99.90;;;;;;5066418;28;20990;-63
2023/11/04 01:46:35;;;;;;;0.83;0.60;;;9.70;99.90;;;;;;5067952;28;20234;-62
2023/11/04 01:49:00;;;;;;;2.00;0.90;;;9.70;99.90;;;;;;5068190;28;20258;-63
2023/11/04 01:51:29;;;;;;;0.80;0.60;;;9.60;99.90;;;;;;5067552;28;20184;-62
2023/11/04 01:53:55;;;;;;;1.00;0.70;;;9.70;99.90;;;;;;5070069;28;20741;-62
2023/11/04 01:56:31;;;;;;;0.90;0.63;;;9.70;99.90;;;;;;5067154;28;20864;-63
2023/11/04 01:58:58;;;;;;;0.60;0.53;;;9.70;99.90;;;;;;5066896;28;20933;-63
2023/11/04 02:01:24;;;;;;;1.00;0.70;;;9.70;99.90;;;;;;5071607;28;21003;-62
2023/11/04 02:03:51;;;;;;;1.10;0.50;;;9.70;99.90;;;;;;5067679;28;20769;-62
2023/11/04 02:06:17;;;;;;;1.00;0.70;;;9.70;99.90;;;;;;5068856;28;20480;-63
2023/11/04 02:08:43;;;;;;;0.80;0.70;;;9.70;99.90;;;;;;5069579;28;20434;-63
2023/11/04 02:11:09;;;;;;;0.50;0.40;;;9.80;99.90;;;;;;5068800;28;20434;-61
2023/11/04 02:13:34;;;;;;;0.70;0.67;;;9.80;99.90;;;;;;5068672;28;20188;-61
2023/11/04 02:16:00;;;;;;;1.10;0.70;;;9.80;99.90;;;;;;5069085;28;20232;-63
2023/11/04 02:18:27;;;;;;;0.40;0.30;;;9.80;99.90;;;;;;5069533;28;20673;-62
2023/11/04 02:21:00;;;;;;;2.43;0.67;;;9.90;99.90;;;;;;5068474;28;20648;-61
2023/11/04 02:23:28;;;;;;;0.50;0.50;;;9.90;99.90;;;;;;5068205;28;20537;-63
2023/11/04 02:25:54;;;;;;;0.90;0.80;;;9.80;99.90;;;;;;5069376;28;20467;-61
2023/11/04 02:28:20;;;;;;;0.57;0.53;;;9.90;99.90;;;;;;5068841;28;20511;-63
2023/11/04 02:30:46;;;;;;;0.50;0.40;;;9.90;99.90;;;;;;5069195;28;20185;-62
2023/11/04 02:33:11;;;;;;;0.87;0.60;;;9.90;99.90;;;;;;5064851;28;20884;-61
2023/11/04 02:35:37;;;;;;;3.67;0.60;;;9.90;99.90;;;;;;5068131;28;20280;-63
2023/11/04 02:38:03;;;;;;;0.60;0.50;;;9.90;99.90;;;;;;5068623;28;20189;-63
2023/11/04 02:40:28;;;;;;;1.00;0.60;;;9.90;99.90;;;;;;5068686;28;20227;-62
2023/11/04 02:42:54;;;;;;;1.53;0.47;;;9.90;99.90;;;;;;5067989;28;20184;-61
2023/11/04 02:45:20;;;;;;;0.83;0.80;;;9.90;99.90;;;;;;5065045;28;20638;-61
2023/11/04 02:47:45;;;;;;;2.10;0.60;;;9.90;99.90;;;;;;5070955;28;20173;-62
2023/11/04 02:50:13;;;;;;;2.20;0.50;;;9.90;99.90;;;;;;5067555;28;20272;-62
2023/11/04 02:52:39;;;;;;;1.23;0.50;;;9.90;99.90;;;;;;5067551;28;20625;-62
2023/11/04 02:55:05;;;;;;;0.67;0.50;;;9.90;99.90;;;;;;5067414;28;20424;-62
2023/11/04 02:57:31;;;;;;;0.50;0.40;;;9.90;99.90;;;;;;5071057;28;20539;-61
2023/11/04 02:59:57;;;;;;;0.50;0.40;;;9.90;99.90;;;;;;5068841;28;20434;-62
2023/11/04 03:02:22;;;;;;;1.33;0.70;;;9.90;99.90;;;;;;5067130;28;20287;-62
2023/11/04 03:04:48;;;;;;;0.80;0.60;;;9.90;99.90;;;;;;5067714;28;20223;-61
2023/11/04 03:07:14;;;;;;;1.00;0.70;;;9.90;99.90;;;;;;5067714;28;20653;-63
2023/11/04 03:09:40;;;;;;;0.70;0.60;;;9.90;99.90;;;;;;5070622;28;20921;-61
2023/11/04 03:12:06;;;;;;;2.33;0.50;;;9.90;99.90;;;;;;5068220;28;20522;-63
2023/11/04 03:14:31;;;;;;;0.80;0.60;;;9.90;99.90;;;;;;5067404;28;20532;-62
2023/11/04 03:16:57;;;;;;;2.50;0.60;;;9.90;99.90;;;;;;5066342;28;21195;-62
2023/11/04 03:19:23;;;;;;;0.80;0.70;;;9.90;99.90;;;;;;5067421;28;20192;-63
2023/11/04 03:21:48;;;;;;;1.60;0.70;;;9.90;99.90;;;;;;5068045;28;20204;-63
2023/11/04 03:24:14;;;;;;;2.40;0.60;;;9.90;99.90;;;;;;5066590;28;20185;-63
2023/11/04 03:26:40;;;;;;;0.93;0.67;;;9.90;99.90;;;;;;5067919;28;20276;-61
2023/11/04 03:29:06;;;;;;;0.90;0.50;;;9.90;99.90;;;;;;5068524;28;20188;-62
2023/11/04 03:31:31;;;;;;;0.87;0.60;;;9.90;99.90;;;;;;5067275;28;20682;-63
2023/11/04 03:33:58;;;;;;;3.33;0.63;;;10.00;99.90;;;;;;5064789;28;20193;-62
2023/11/04 03:36:24;;;;;;;1.63;0.87;;;9.90;99.90;;;;;;5066647;28;20204;-63
2023/11/04 03:38:51;;;;;;;0.70;0.60;;;9.90;99.90;;;;;;5066874;28;20453;-63
2023/11/04 03:41:16;;;;;;;1.40;0.70;;;9.90;99.90;;;;;;5067438;28;20428;-62
2023/11/04 03:43:42;;;;;;;1.80;0.50;;;9.90;99.90;;;;;;5066882;28;20947;-61
2023/11/04 03:46:08;;;;;;;0.97;0.57;;;9.90;99.90;;;;;;5070771;28;20222;-63
2023/11/04 03:48:34;;;;;;;0.60;0.40;;;9.90;99.90;;;;;;5066746;28;20249;-63
2023/11/04 03:51:00;;;;;;;0.60;0.43;;;10.00;99.90;;;;;;5051217;28;20916;-62
2023/11/04 03:53:25;;;;;;;0.93;0.50;;;10.00;99.90;;;;;;5069722;28;20423;-62
2023/11/04 03:55:51;;;;;;;0.60;0.60;;;10.00;99.90;;;;;;5067996;28;20303;-62
2023/11/04 03:58:17;;;;;;;1.10;1.00;;;10.10;99.90;;;;;;5065013;28;20251;-62
2023/11/04 04:00:43;;;;;;;0.70;0.53;;;10.00;99.90;;;;;;5067799;28;20191;-62
2023/11/04 04:03:09;;;;;;;0.70;0.60;;;10.00;99.90;;;;;;5066222;28;20208;-61
2023/11/04 04:05:34;;;;;;;0.60;0.60;;;10.00;99.90;;;;;;5067621;28;20534;-62
2023/11/04 04:08:00;;;;;;;1.10;0.73;;;10.00;99.90;;;;;;5069464;28;20188;-62
2023/11/04 04:10:26;;;;;;;0.70;0.60;;;10.00;99.90;;;;;;5069312;28;20375;-62
2023/11/04 04:12:52;;;;;;;4.90;0.73;;;10.00;99.90;;;;;;5070681;28;21117;-63
2023/11/04 04:15:18;;;;;;;0.60;0.57;;;10.00;99.90;;;;;;5068893;28;20185;-62
2023/11/04 04:17:44;;;;;;;0.77;0.70;;;10.00;99.90;;;;;;5070679;28;21312;-63
2023/11/04 04:20:16;;;;;;;1.00;0.90;;;10.00;99.90;;;;;;5070985;28;20184;-63
2023/11/04 04:22:42;;;;;;;0.77;0.60;;;10.00;99.90;;;;;;5068800;28;20193;-62
2023/11/04 04:25:09;;;;;;;0.80;0.77;;;10.10;99.90;;;;;;5070380;28;20433;-62
2023/11/04 04:27:36;;;;;;;0.80;0.50;;;10.00;99.90;;;;;;5067842;28;20589;-63
2023/11/04 04:30:02;;;;;;;1.47;0.70;;;10.00;99.90;;;;;;5070544;28;20762;-62
2023/11/04 04:32:28;;;;;;;2.40;0.90;;;10.10;99.90;;;;;;5069399;28;21000;-62
2023/11/04 04:34:53;;;;;;;0.77;0.77;;;10.10;99.90;;;;;;5069909;28;20427;-61
2023/11/04 04:37:19;;;;;;;1.20;0.87;;;10.10;99.90;;;;;;5070569;28;20719;-62
2023/11/04 04:39:45;;;;;;;1.30;0.60;;;10.10;99.90;;;;;;5069977;28;20263;-61
2023/11/04 04:42:11;;;;;;;1.20;0.90;;;10.10;99.90;;;;;;5070293;28;20584;-62
2023/11/04 04:44:36;;;;;;;1.43;0.60;;;10.10;99.90;;;;;;5068936;28;20192;-63
2023/11/04 04:47:02;;;;;;;0.83;0.70;;;10.10;99.90;;;;;;5073975;28;20192;-62
2023/11/04 04:49:28;;;;;;;1.30;0.70;;;10.00;99.90;;;;;;5069889;28;20215;-62
2023/11/04 04:51:54;;;;;;;2.00;0.83;;;10.00;99.90;;;;;;5067891;28;20427;-61
2023/11/04 04:54:20;;;;;;;1.20;0.73;;;10.00;99.90;;;;;;5069085;28;20718;-63
2023/11/04 04:56:46;;;;;;;2.03;1.13;;;10.00;99.90;;;;;;5073105;28;20217;-61
2023/11/04 04:59:12;;;;;;;0.77;0.67;;;10.00;99.90;;;;;;5069927;28;20466;-63
2023/11/04 05:01:38;;;;;;;1.23;0.90;;;10.10;99.90;;;;;;5069569;28;20529;-62
2023/11/04 05:04:04;;;;;;;1.03;0.70;;;10.10;99.90;;;;;;5067907;28;20430;-62
2023/11/04 05:06:30;;;;;;;0.60;0.50;;;10.10;99.90;;;;;;5068266;28;20474;-61
2023/11/04 05:08:55;;;;;;;1.50;0.80;;;10.10;99.90;;;;;;5070371;28;20426;-62
2023/11/04 05:11:21;;;;;;;1.90;0.70;;;10.10;99.90;;;;;;5067773;28;20581;-62
2023/11/04 05:13:47;;;;;;;0.90;0.80;;;10.10;99.90;;;;;;5066836;28;20195;-63
2023/11/04 05:16:13;;;;;;;0.90;0.80;;;10.10;99.90;;;;;;5067306;28;20459;-63
2023/11/04 05:18:38;;;;;;;1.63;0.80;;;10.10;99.90;;;;;;5066476;28;20287;-61
2023/11/04 05:21:04;;;;;;;1.27;0.70;;;10.10;99.90;;;;;;5068848;28;20184;-62
2023/11/04 05:23:31;;;;;;;0.87;0.70;;;10.10;99.90;;;;;;5068372;28;20202;-63
2023/11/04 05:25:57;;;;;;;2.03;0.70;;;10.10;99.90;;;;;;5069526;28;20181;-62
2023/11/04 05:28:24;;;;;;;1.03;0.60;;;10.10;99.90;;;;;;5072802;28;20423;-62
2023/11/04 05:30:50;;;;;;;1.20;1.10;;;10.10;99.90;;;;;;5068441;28;20407;-63
2023/11/04 05:33:16;;;;;;;1.07;0.70;;;10.00;99.90;;;;;;5070327;28;21152;-63
2023/11/04 05:35:43;;;;;;;1.23;0.70;;;10.10;99.90;;;;;;5069637;28;20225;-63
2023/11/04 05:38:09;;;;;;;0.90;0.60;;;10.10;99.90;;;;;;5069707;28;20462;-64
2023/11/04 05:40:35;;;;;;;1.17;0.90;;;10.10;99.90;;;;;;5068863;28;20446;-62
2023/11/04 05:43:01;;;;;;;1.63;0.70;;;10.10;99.90;;;;;;5067091;28;21157;-63
2023/11/04 05:45:27;;;;;;;1.17;1.00;;;10.10;99.90;;;;;;5068815;28;20426;-62
2023/11/04 05:47:53;;;;;;;1.50;0.90;;;10.10;99.90;;;;;;5068901;28;20267;-61
2023/11/04 05:50:18;;;;;;;1.07;0.70;;;10.10;99.90;;;;;;5068876;28;21018;-62
2023/11/04 05:52:44;;;;;;;0.80;0.70;;;10.10;99.90;;;;;;5064410;28;20856;-61
2023/11/04 05:55:14;;;;;;;1.47;0.90;;;10.10;99.90;;;;;;5068086;28;20188;-64
2023/11/04 05:57:40;;;;;;;1.40;0.80;;;10.10;99.90;;;;;;5067471;28;21346;-62
2023/11/04 06:00:11;;;;;;;1.37;0.87;;;10.10;99.90;;;;;;5072793;28;20487;-62
2023/11/04 06:02:40;;;;;;;1.23;0.80;;;10.10;99.90;;;;;;5067615;28;20450;-63
2023/11/04 06:05:10;;;;;;;4.10;0.80;;;10.00;99.90;;;;;;5067945;28;20440;-62
2023/11/04 06:07:36;;;;;;;3.43;1.00;;;10.00;99.90;;;;;;5064660;28;20431;-62
2023/11/04 06:10:03;;;;;;;1.80;0.80;;;10.00;99.90;;;;;;5066981;28;20469;-61
2023/11/04 06:12:28;;;;;;;1.33;0.80;;;10.00;99.90;;;;;;5068328;28;20543;-63
2023/11/04 06:14:54;;;;;;;0.77;0.67;;;10.00;99.90;;;;;;5066760;28;20444;-62
2023/11/04 06:17:20;;;;;;;0.83;0.80;;;10.00;99.90;;;;;;5066468;28;20475;-63
2023/11/04 06:19:46;;;;;;;2.40;0.97;;;9.90;99.90;;;;;;5067799;28;20176;-63
2023/11/04 06:22:12;;;;;;;0.80;0.80;;;10.00;99.90;;;;;;5066535;28;20196;-63
2023/11/04 06:24:38;;;;;;;0.80;0.63;;;9.90;99.90;;;;;;5063073;28;20189;-63
2023/11/04 06:27:07;;;;;;;1.07;0.80;;;9.90;99.90;;;;;;5066908;28;20458;-62
2023/11/04 06:29:33;;;;;;;0.80;0.70;;;9.90;99.90;;;;;;5067669;28;20577;-61
2023/11/04 06:31:59;;;;;;;1.20;0.70;;;9.80;99.90;;;;;;5065319;28;20452;-62
2023/11/04 06:34:24;;;;;;;1.33;0.80;;;9.80;99.90;;;;;;5066918;28;20180;-62
2023/11/04 06:36:51;;;;;;;0.77;0.60;;;9.90;99.90;;;;;;5065108;28;20208;-63
2023/11/04 06:39:18;;;;;;;3.03;0.97;;;9.80;99.90;;;;;;5067728;28;20240;-63
2023/11/04 06:41:44;;;;;;;1.53;0.77;;;9.80;99.90;;;;;;5065295;28;20427;-62
2023/11/04 06:44:10;;;;;;;0.90;0.80;;;9.80;99.90;;;;;;5065944;28;20616;-62
2023/11/04 06:46:36;;;;;;;0.70;0.70;;;9.80;99.90;;;;;;5067322;28;20776;-61
2023/11/04 06:49:02;;;;;;;2.53;0.77;;;9.80;99.90;;;;;;5070373;28;20522;-63
2023/11/04 06:51:28;;;;;;;1.30;0.63;;;9.80;99.90;;;;;;5062625;28;20531;-62
2023/11/04 06:53:56;;;;;;;0.90;0.60;;;9.80;99.90;;;;;;5064820;28;21076;-63
2023/11/04 06:56:24;;;;;;;1.93;0.77;;;9.80;99.90;;;;;;5065600;28;20494;-62
2023/11/04 06:58:53;;;;;;;0.73;0.70;;;9.80;99.90;;;;;;5066320;28;20420;-62
2023/11/04 07:01:19;;;;;;;0.87;0.70;;;9.80;99.90;;;;;;5063850;28;20492;-62
2023/11/04 07:03:47;;;;;;;1.17;0.90;;;9.80;99.90;;;;;;5064939;28;20502;-64
2023/11/04 07:06:14;;;;;;;1.87;0.70;;;9.80;99.90;;;;;;5064974;28;21257;-63
2023/11/04 07:08:40;;;;;;;0.60;0.50;;;9.80;99.90;;;;;;5067362;28;20487;-61
2023/11/04 07:11:06;;;;;;;3.67;1.00;;;9.80;99.90;;;;;;5065637;28;20527;-61
2023/11/04 07:13:32;;;;;;;1.47;0.70;;;9.80;99.90;;;;;;5066492;28;20540;-61
2023/11/04 07:15:57;;;;;;;1.50;0.80;;;9.90;99.90;;;;;;5067031;28;20200;-61
2023/11/04 07:18:23;;;;;;;0.80;0.70;;;9.90;99.90;;;;;;5067079;28;21362;-63
2023/11/04 07:20:50;;;;;;;1.30;0.70;;;9.90;99.90;;;;;;5067452;28;20226;-63
2023/11/04 07:23:17;;;;;;;1.53;1.00;;;10.10;99.90;;;;;;5064845;28;20435;-63
2023/11/04 07:25:44;;;;;;;1.80;1.30;;;10.20;99.90;;;;;;5067169;28;20427;-62
2023/11/04 07:28:10;;;;;;;0.97;0.67;;;10.20;99.90;;;;;;5066172;28;20434;-60
2023/11/04 07:30:37;;;;;;;1.67;0.70;;;10.10;99.90;;;;;;5063477;28;20431;-62
2023/11/04 07:33:04;;;;;;;1.57;0.50;;;10.20;99.90;;;;;;5064491;28;20438;-61
2023/11/04 07:35:30;;;;;;;0.90;0.70;;;10.10;99.90;;;;;;5064076;28;20470;-62
2023/11/04 07:37:56;;;;;;;1.67;0.80;;;10.10;99.90;;;;;;5065183;28;20564;-63
2023/11/04 07:40:24;;;;;;;1.03;0.70;;;10.00;99.90;;;;;;5068633;28;20177;-63
2023/11/04 07:42:50;;;;;;;1.00;0.70;;;10.00;99.90;;;;;;5068951;28;20527;-63
2023/11/04 07:45:16;;;;;;;1.33;0.60;;;10.00;99.90;;;;;;5070688;28;20431;-61
2023/11/04 07:47:45;;;;;;;1.53;0.80;;;10.00;99.90;;;;;;5072216;28;20484;-62
2023/11/04 07:50:12;;;;;;;1.60;0.77;;;10.00;99.90;;;;;;5069551;28;20436;-62
2023/11/04 07:52:41;;;;;;;1.27;0.67;;;10.00;99.90;;;;;;5071021;28;20451;-63
2023/11/04 07:55:10;;;;;;;0.90;0.70;;;10.10;99.90;;;;;;5069478;28;20996;-61
2023/11/04 07:57:37;;;;;;;3.30;0.80;;;10.30;99.90;;;;;;5071035;28;20548;-64
2023/11/04 08:00:10;;;;;;;1.13;0.70;;;10.60;99.90;;;;;;5071405;28;20430;-63
2023/11/04 08:02:37;;;;;;;1.17;0.70;;;10.80;99.90;;;;;;5068735;28;20500;-62
2023/11/04 08:05:04;;;;;;;1.20;0.80;;;10.70;99.90;;;;;;5069262;28;20521;-62
2023/11/04 08:07:30;;;;;;;0.70;0.50;;;10.60;99.90;;;;;;5068848;28;20435;-62
2023/11/04 08:09:57;;;;;;;0.97;0.60;;;10.60;99.90;;;;;;5071777;28;20776;-62
2023/11/04 08:12:23;;;;;;;1.20;0.87;;;10.50;99.90;;;;;;5068807;28;20458;-61
2023/11/04 08:14:49;;;;;;;1.00;0.80;;;10.40;99.90;;;;;;5070592;28;21033;-62
2023/11/04 08:17:15;;;;;;;1.23;0.83;;;10.40;99.90;;;;;;5084883;28;20217;-62
2023/11/04 08:19:41;;;;;;;0.80;0.80;;;10.30;99.90;;;;;;5085068;28;20831;-62
2023/11/04 08:22:07;;;;;;;1.03;0.93;;;10.40;99.90;;;;;;5071014;28;20427;-63
2023/11/04 08:24:33;;;;;;;1.40;0.93;;;10.40;99.90;;;;;;5073647;28;20184;-61
2023/11/04 08:26:59;;;;;;;1.07;0.73;;;10.40;99.90;;;;;;5068003;28;20442;-61
2023/11/04 08:29:25;;;;;;;1.10;0.63;;;10.50;99.90;;;;;;5066846;28;20419;-62
2023/11/04 08:31:51;;;;;;;0.97;0.87;;;10.50;99.90;;;;;;5067920;28;21194;-61
2023/11/04 08:34:17;;;;;;;2.60;0.80;;;10.50;99.90;;;;;;5066973;28;21277;-63
2023/11/04 08:36:43;;;;;;;1.47;0.93;;;10.60;99.90;;;;;;5069006;28;20910;-61
2023/11/04 08:39:09;;;;;;;0.77;0.77;;;10.80;99.90;;;;;;5067152;28;20426;-61
2023/11/04 08:41:35;;;;;;;1.63;1.00;;;10.80;99.90;;;;;;5067456;28;20471;-62
2023/11/04 08:44:01;;;;;;;0.97;0.90;;;10.90;99.90;;;;;;5068539;28;20554;-63
2023/11/04 08:46:27;;;;;;;1.00;0.90;;;11.00;99.90;;;;;;5066671;28;20466;-62
2023/11/04 08:48:52;;;;;;;1.30;1.00;;;11.40;99.90;;;;;;5066900;28;20220;-62
2023/11/04 08:51:18;;;;;;;1.20;1.03;;;11.70;99.90;;;;;;5066541;28;20192;-61
2023/11/04 08:53:44;;;;;;;1.13;0.93;;;11.70;99.90;;;;;;5068711;28;20514;-61
2023/11/04 08:56:10;;;;;;;0.90;0.80;;;11.60;99.90;;;;;;5070559;28;20510;-61
2023/11/04 08:58:35;;;;;;;2.10;0.90;;;11.60;99.90;;;;;;5066528;28;20216;-61
2023/11/04 09:01:02;;;;;;;1.10;1.00;;;11.60;99.90;;;;;;5059377;28;20193;-61
2023/11/04 09:03:27;;;;;;;1.53;0.90;;;11.60;99.90;;;;;;5058457;28;20195;-62
2023/11/04 09:05:53;;;;;;;1.40;1.10;;;11.50;99.90;;;;;;5062514;28;20422;-61
2023/11/04 09:08:20;;;;;;;1.30;1.20;;;11.30;99.90;;;;;;5062479;28;20189;-62
2023/11/04 09:10:47;;;;;;;1.37;1.27;;;11.30;99.90;;;;;;5063780;28;20539;-61
2023/11/04 09:13:15;;;;;;;2.03;1.43;;;11.20;99.90;;;;;;5062041;28;20439;-61
2023/11/04 09:15:41;;;;;;;1.57;1.20;;;11.10;99.90;;;;;;5062049;28;20820;-62
2023/11/04 09:18:07;;;;;;;1.20;1.10;;;11.10;99.90;;;;;;5067669;28;20801;-62
2023/11/04 09:20:34;;;;;;;1.37;0.80;;;11.00;99.90;;;;;;5063530;28;20196;-61
2023/11/04 09:23:02;;;;;;;2.40;1.33;;;11.00;99.90;;;;;;5062655;28;20941;-62
2023/11/04 09:25:27;;;;;;;3.30;1.60;;;11.00;99.90;;;;;;5057759;28;20457;-63
2023/11/04 09:27:53;;;;;;;1.80;1.40;;;11.00;99.90;;;;;;5065546;28;20443;-63
2023/11/04 09:30:19;;;;;;;1.33;1.20;;;11.00;99.90;;;;;;5057912;28;20189;-62
2023/11/04 09:32:46;;;;;;;1.80;1.40;;;11.10;99.90;;;;;;5065548;28;20496;-62
2023/11/04 09:35:15;;;;;;;1.70;1.50;;;11.20;99.90;;;;;;5067765;28;20479;-63
2023/11/04 09:37:41;;;;;;;1.50;1.30;;;11.20;99.90;;;;;;5067841;28;20502;-62
2023/11/04 09:40:08;;;;;;;1.90;1.40;;;11.20;99.90;;;;;;5068548;28;20523;-62
2023/11/04 09:42:35;;;;;;;1.30;1.20;;;11.30;99.90;;;;;;5068522;28;20185;-63
2023/11/04 09:45:03;;;;;;;1.93;1.37;;;11.30;99.90;;;;;;5066453;28;20435;-63
2023/11/04 09:47:30;;;;;;;3.27;1.17;;;11.30;99.90;;;;;;5068564;28;20842;-63
2023/11/04 09:49:55;;;;;;;2.93;1.37;;;11.30;99.90;;;;;;5069248;28;20434;-62
2023/11/04 09:52:23;;;;;;;1.40;1.27;;;11.30;99.90;;;;;;5071639;28;20501;-62
2023/11/04 09:54:49;;;;;;;1.37;1.27;;;11.30;99.90;;;;;;5065115;28;20215;-62
2023/11/04 09:57:15;;;;;;;6.30;1.10;;;11.30;99.90;;;;;;5065705;28;20480;-62
2023/11/04 09:59:41;;;;;;;10.30;2.53;;;11.30;99.90;;;;;;5067175;28;20830;-63
2023/11/04 10:02:11;;;;;;;4.20;1.20;;;11.20;99.90;;;;;;5064719;28;20465;-62
2023/11/04 10:04:37;;;;;;;1.20;1.00;;;11.30;99.90;;;;;;5063821;28;20442;-61
2023/11/04 10:07:04;;;;;;;1.80;1.03;;;11.30;99.90;;;;;;5064715;28;20775;-62
2023/11/04 10:09:29;;;;;;;2.07;1.13;;;11.50;99.90;;;;;;5066529;28;20435;-62
2023/11/04 10:11:55;;;;;;;6.87;1.83;;;11.60;99.90;;;;;;5063121;28;20422;-62
2023/11/04 10:14:21;;;;;;;1.60;1.20;;;11.80;99.90;;;;;;5061774;28;20186;-62
2023/11/04 10:16:47;;;;;;;2.70;1.30;;;12.00;99.90;;;;;;5059336;28;20217;-62
2023/11/04 10:19:14;;;;;;;1.97;1.20;;;12.10;99.90;;;;;;5060466;28;20589;-62
2023/11/04 10:21:40;;;;;;;1.50;1.40;;;12.10;99.90;;;;;;5062524;28;20443;-62
2023/11/04 10:24:07;;;;;;;1.30;1.20;;;12.00;99.90;;;;;;5061436;28;20868;-62
2023/11/04 10:26:33;;;;;;;1.10;1.00;;;11.90;99.90;;;;;;5063438;28;20424;-62
2023/11/04 10:28:59;;;;;;;3.03;1.20;;;11.80;99.90;;;;;;5051109;28;21105;-62
2023/11/04 10:31:26;;;;;;;37.80;4.10;;;11.80;99.90;;;;;;5061694;28;20442;-61
2023/11/04 10:33:59;;;;;;;30.53;4.50;;;11.70;99.90;;;;;;5062070;28;20254;-62
2023/11/04 10:36:25;;;;;;;26.50;5.70;;;11.80;99.90;;;;;;5062586;28;20434;-61
2023/11/04 10:38:57;;;;;;;57.38;12.07;;;11.80;99.90;;;;;;5061582;28;20418;-61
2023/11/04 10:41:48;;;;;;;38.22;9.45;;;11.90;99.90;;;;;;5055960;28;21142;-62
2023/11/04 10:44:32;;;;;;;7.00;1.90;;;12.00;99.90;;;;;;5058985;28;20510;-62
2023/11/04 10:47:08;;;;;;;1.40;1.00;;;12.00;99.90;;;;;;5058914;28;20188;-61
2023/11/04 10:49:48;;;;;;;1.07;1.00;;;12.00;99.90;;;;;;5061070;28;20433;-63
2023/11/04 10:52:18;;;;;;;1.30;1.20;;;12.00;99.90;;;;;;5065173;28;21297;-62
2023/11/04 10:54:59;;;;;;;2.30;1.40;;;11.90;99.90;;;;;;5065288;28;20427;-63
2023/11/04 10:57:57;;;;;;;1.40;1.30;;;11.80;99.90;;;;;;5064860;28;20491;-61
2023/11/04 11:00:25;;;;;;;2.33;1.20;;;11.80;99.90;;;;;;5063226;28;20779;-63
2023/11/04 11:02:52;;;;;;;3.43;0.90;;;11.70;99.90;;;;;;5064972;28;20489;-64
2023/11/04 11:05:22;;;;;;;2.40;1.30;;;11.70;99.90;;;;;;5061777;28;20518;-63
2023/11/04 11:07:49;;;;;;;3.57;1.47;;;11.60;99.90;;;;;;5063021;28;20427;-62
2023/11/04 11:10:20;;;;;;;3.83;1.03;;;11.60;99.90;;;;;;5067234;28;20431;-63
2023/11/04 11:13:07;;;;;;;2.90;1.43;;;11.60;99.90;;;;;;5066741;28;20431;-62
2023/11/04 11:15:34;;;;;;;1.73;1.37;;;11.60;99.90;;;;;;5067578;28;20491;-62
2023/11/04 11:18:00;;;;;;;1.40;0.93;;;11.50;99.90;;;;;;5068523;28;20466;-62
2023/11/04 11:20:34;;;;;;;3.33;1.40;;;11.50;99.90;;;;;;5069035;28;20451;-63
2023/11/04 11:23:03;;;;;;;3.40;1.30;;;11.40;99.90;;;;;;5069797;28;20434;-62
2023/11/04 11:25:34;;;;;;;5.63;1.43;;;11.40;99.90;;;;;;5070322;28;20480;-63
2023/11/04 11:28:02;;;;;;;2.80;1.20;;;11.30;99.90;;;;;;5070655;28;20450;-63
2023/11/04 11:30:40;;;;;;;1.93;1.30;;;11.30;99.90;;;;;;5067059;28;20439;-63
2023/11/04 13:45:11;;;;;;;0.70;0.70;;;9.80;99.90;;;;;;5069434;28;20427;-62
2023/11/04 13:47:37;;;;;;;1.60;1.10;;;9.80;99.90;;;;;;5069684;28;20451;-63
2023/11/04 13:50:06;;;;;;;1.83;0.80;;;9.70;99.90;;;;;;5064156;28;21237;-63
2023/11/04 13:52:32;;;;;;;1.00;0.70;;;9.70;99.90;;;;;;5067131;28;20181;-63
2023/11/04 13:54:58;;;;;;;1.93;0.70;;;9.70;99.90;;;;;;5065789;28;20435;-64
2023/11/04 13:57:24;;;;;;;2.63;0.90;;;9.70;99.90;;;;;;5067488;28;20294;-63
2023/11/04 13:59:50;;;;;;;2.57;0.70;;;9.60;99.90;;;;;;5068217;28;20428;-63
2023/11/04 14:02:15;;;;;;;1.27;0.70;;;9.70;99.90;;;;;;5067727;28;20240;-64
2023/11/04 14:04:41;;;;;;;0.93;0.70;;;9.60;99.90;;;;;;5049736;28;20642;-64
2023/11/04 14:07:07;;;;;;;1.40;0.57;;;9.60;99.90;;;;;;5069626;28;20200;-62
2023/11/04 14:09:33;;;;;;;1.03;0.60;;;9.60;99.90;;;;;;5068623;28;20196;-63
2023/11/04 14:11:59;;;;;;;1.03;0.80;;;9.60;99.90;;;;;;5066900;28;20189;-63
2023/11/04 14:14:25;;;;;;;1.13;0.90;;;9.50;99.90;;;;;;5088163;28;20418;-63
2023/11/04 14:16:50;;;;;;;1.30;0.70;;;9.60;99.90;;;;;;5088798;28;20643;-62
2023/11/04 14:19:16;;;;;;;1.90;1.00;;;9.60;99.90;;;;;;5088913;28;20196;-63
2023/11/04 14:21:42;;;;;;;1.23;0.87;;;9.60;99.90;;;;;;5088425;28;20184;-63
2023/11/04 14:24:08;;;;;;;1.27;0.80;;;9.60;99.90;;;;;;5088103;28;20223;-62
2023/11/04 14:26:34;;;;;;;1.67;0.77;;;9.60;99.90;;;;;;5086189;28;20847;-63
2023/11/04 14:29:00;;;;;;;1.77;0.73;;;9.60;99.90;;;;;;5089465;28;20418;-62
2023/11/04 14:31:26;;;;;;;1.00;0.90;;;9.60;99.90;;;;;;5090477;28;20231;-63
2023/11/04 14:33:52;;;;;;;1.40;1.30;;;9.60;99.90;;;;;;5087281;28;20497;-63
2023/11/04 14:36:18;;;;;;;0.93;0.83;;;9.60;99.90;;;;;;5080133;28;20478;-64
2023/11/04 14:38:43;;;;;;;1.57;0.80;;;9.60;99.90;;;;;;5083149;28;20190;-62
2023/11/04 14:41:09;;;;;;;1.17;0.70;;;9.60;99.90;;;;;;5085481;28;20283;-63
2023/11/04 14:43:36;;;;;;;1.10;0.70;;;9.60;99.90;;;;;;5086710;28;20236;-62
2023/11/04 14:46:01;;;;;;;0.80;0.70;;;9.60;99.90;;;;;;5087056;28;20544;-64
2023/11/04 14:48:27;;;;;;;0.87;0.80;;;9.60;99.90;;;;;;5068962;28;20188;-64
2023/11/04 14:50:53;;;;;;;0.70;0.70;;;9.60;99.90;;;;;;5085631;28;20200;-64
2023/11/04 14:53:23;;;;;;;1.00;0.80;;;9.60;99.90;;;;;;5087695;28;20267;-63
2023/11/04 14:55:49;;;;;;;1.00;0.80;;;9.60;99.90;;;;;;5089728;28;20178;-62
2023/11/04 14:58:14;;;;;;;1.30;0.80;;;9.60;99.90;;;;;;5088114;28;20469;-64
2023/11/04 15:00:40;;;;;;;0.90;0.73;;;9.60;99.90;;;;;;5082367;28;20438;-62